Time;durP1;ratioP1;P1;durP2;ratioP2;P2;SDS_P1;SDS_P2;PMS_P1;PMS_P2;Temp;Humidity;BMP_temperature;BMP_pressure;BME280_temperature;BME280_humidity;BME280_pressure;Samples;Min_cycle;Max_cycle;Signal;HPM_P1;HPM_P2
2023/07/22 00:01:36;;;;;;;9.10;5.30;;;15.10;99.90;;;;;;5011940;28;20212;-61
2023/07/22 00:04:04;;;;;;;8.50;4.80;;;15.00;99.90;;;;;;5014136;28;20565;-61
2023/07/22 00:06:31;;;;;;;8.10;5.43;;;14.90;99.90;;;;;;5002596;28;20255;-62
2023/07/22 00:08:58;;;;;;;8.70;5.70;;;14.80;99.90;;;;;;5014736;28;20680;-63
2023/07/22 00:11:25;;;;;;;11.70;5.93;;;14.60;99.90;;;;;;5007696;28;20217;-63
2023/07/22 00:13:53;;;;;;;12.53;6.13;;;14.50;99.90;;;;;;5009797;28;20185;-62
2023/07/22 00:16:20;;;;;;;8.60;5.87;;;14.50;99.90;;;;;;5011932;28;20189;-63
2023/07/22 00:18:49;;;;;;;8.33;5.73;;;14.50;99.90;;;;;;5015414;28;20238;-63
2023/07/22 00:21:16;;;;;;;9.10;5.40;;;14.60;99.90;;;;;;5005439;28;20272;-62
2023/07/22 00:23:46;;;;;;;9.93;6.23;;;14.60;99.90;;;;;;5011231;28;20244;-63
2023/07/22 00:26:13;;;;;;;14.60;6.27;;;14.70;99.90;;;;;;5006796;28;20200;-63
2023/07/22 00:28:40;;;;;;;10.27;5.90;;;14.80;99.90;;;;;;5008373;28;20270;-63
2023/07/22 00:31:08;;;;;;;9.07;5.03;;;14.80;99.90;;;;;;5012645;28;20212;-64
2023/07/22 00:33:35;;;;;;;10.27;5.17;;;14.70;99.90;;;;;;5008307;28;20238;-63
2023/07/22 00:36:03;;;;;;;8.80;5.07;;;14.60;99.90;;;;;;5009366;28;20247;-63
2023/07/22 00:38:30;;;;;;;10.30;5.23;;;14.50;99.90;;;;;;5000638;28;20711;-63
2023/07/22 00:41:04;;;;;;;6.60;4.57;;;14.40;99.90;;;;;;5004852;28;20739;-63
2023/07/22 00:43:31;;;;;;;9.10;5.57;;;14.30;99.90;;;;;;5016291;28;20542;-63
2023/07/22 00:45:59;;;;;;;10.13;5.17;;;14.30;99.90;;;;;;5011467;28;20291;-63
2023/07/22 00:48:27;;;;;;;9.73;5.97;;;14.30;99.90;;;;;;5017328;28;20208;-63
2023/07/22 00:50:55;;;;;;;9.60;5.43;;;14.20;99.90;;;;;;5001127;28;20201;-63
2023/07/22 00:53:22;;;;;;;10.60;6.43;;;14.20;99.90;;;;;;5005276;28;20197;-63
2023/07/22 00:55:49;;;;;;;10.47;5.57;;;14.30;99.90;;;;;;4989423;28;20193;-63
2023/07/22 00:58:16;;;;;;;8.23;5.00;;;14.20;99.90;;;;;;5006340;28;20235;-62
2023/07/22 01:00:43;;;;;;;8.77;5.87;;;14.20;99.90;;;;;;5006669;28;20533;-62
2023/07/22 01:03:10;;;;;;;10.33;5.70;;;14.20;99.90;;;;;;5015156;28;20239;-62
2023/07/22 01:05:39;;;;;;;9.13;5.17;;;14.10;99.90;;;;;;5006970;28;20386;-62
2023/07/22 01:08:06;;;;;;;11.63;5.80;;;14.20;99.90;;;;;;5008911;28;20711;-63
2023/07/22 01:10:33;;;;;;;9.90;4.97;;;14.20;99.90;;;;;;5004653;28;20189;-62
2023/07/22 01:13:00;;;;;;;9.57;5.83;;;14.10;99.90;;;;;;5006280;28;20193;-61
2023/07/22 01:15:28;;;;;;;10.73;5.80;;;14.10;99.90;;;;;;5014246;28;20538;-62
2023/07/22 01:17:56;;;;;;;9.67;5.57;;;14.20;99.90;;;;;;5005844;28;20576;-62
2023/07/22 01:20:24;;;;;;;10.90;5.13;;;14.30;99.90;;;;;;5007545;28;20229;-61
2023/07/22 01:22:52;;;;;;;9.30;5.07;;;14.30;99.90;;;;;;5002268;28;20661;-61
2023/07/22 01:25:23;;;;;;;9.03;5.07;;;14.20;99.90;;;;;;5002465;28;20208;-61
2023/07/22 01:27:51;;;;;;;8.83;5.27;;;14.30;99.90;;;;;;5004075;28;20676;-61
2023/07/22 01:30:22;;;;;;;6.47;4.53;;;14.20;99.90;;;;;;4990643;28;20208;-60
2023/07/22 01:32:50;;;;;;;8.47;4.37;;;14.30;99.90;;;;;;5011533;28;20300;-60
2023/07/22 01:35:18;;;;;;;16.37;5.10;;;14.30;99.90;;;;;;5007176;28;20197;-63
2023/07/22 01:37:45;;;;;;;8.43;5.27;;;14.20;99.90;;;;;;5004808;28;20200;-63
2023/07/22 01:40:12;;;;;;;12.87;5.43;;;14.20;99.90;;;;;;5007276;28;20194;-63
2023/07/22 01:42:43;;;;;;;7.13;4.50;;;14.20;99.90;;;;;;5006087;28;20288;-63
2023/07/22 01:45:10;;;;;;;9.23;5.30;;;14.20;99.90;;;;;;5006728;28;21512;-63
2023/07/22 01:47:39;;;;;;;8.73;4.43;;;14.30;99.90;;;;;;5007457;28;20194;-63
2023/07/22 01:50:06;;;;;;;9.80;4.60;;;14.30;99.90;;;;;;5009460;28;20201;-63
2023/07/22 01:52:34;;;;;;;8.03;4.90;;;14.30;99.90;;;;;;5011846;28;20208;-63
2023/07/22 01:55:01;;;;;;;9.30;4.97;;;14.20;99.90;;;;;;5009445;28;20632;-61
2023/07/22 01:57:28;;;;;;;10.90;6.33;;;14.20;99.90;;;;;;5011113;28;20255;-66
2023/07/22 01:59:55;;;;;;;9.07;4.93;;;14.30;99.90;;;;;;5008672;28;20199;-61
2023/07/22 02:06:23;;;;;;;8.77;5.03;;;14.30;99.90;;;;;;5009232;28;20767;-61
2023/07/22 02:08:51;;;;;;;9.20;5.30;;;14.30;99.90;;;;;;4993048;28;20223;-61
2023/07/22 02:11:18;;;;;;;14.27;6.43;;;14.30;99.90;;;;;;5012683;28;20673;-62
2023/07/22 02:13:45;;;;;;;10.83;5.20;;;14.30;99.90;;;;;;5005099;28;20223;-61
2023/07/22 02:16:12;;;;;;;11.87;5.53;;;14.40;99.90;;;;;;4994822;28;20262;-61
2023/07/22 02:18:39;;;;;;;9.03;5.13;;;14.40;99.90;;;;;;5011218;28;20192;-62
2023/07/22 02:21:06;;;;;;;7.10;4.93;;;14.40;99.90;;;;;;5009152;28;20203;-62
2023/07/22 02:23:33;;;;;;;10.50;5.73;;;14.40;99.90;;;;;;5007634;28;20312;-61
2023/07/22 02:26:01;;;;;;;9.30;5.50;;;14.40;99.90;;;;;;5004714;28;20540;-62
2023/07/22 02:28:28;;;;;;;12.90;5.53;;;14.40;99.90;;;;;;5009684;28;20271;-62
2023/07/22 02:31:00;;;;;;;8.43;5.33;;;14.30;99.90;;;;;;5007393;28;20220;-63
2023/07/22 02:33:27;;;;;;;9.63;5.23;;;14.40;99.90;;;;;;5006344;28;20225;-62
2023/07/22 02:35:54;;;;;;;7.57;5.00;;;14.40;99.90;;;;;;5008116;28;20566;-61
2023/07/22 02:38:21;;;;;;;10.03;5.67;;;14.40;99.90;;;;;;5005150;28;20190;-62
2023/07/22 02:40:48;;;;;;;13.50;5.53;;;14.40;99.90;;;;;;5004460;28;20654;-61
2023/07/22 02:43:15;;;;;;;9.03;5.23;;;14.50;99.90;;;;;;5009262;28;20769;-61
2023/07/22 02:45:42;;;;;;;9.27;5.27;;;14.50;99.90;;;;;;4990914;28;20201;-61
2023/07/22 02:48:09;;;;;;;12.73;5.70;;;14.40;99.90;;;;;;5011141;28;20189;-61
2023/07/22 02:50:36;;;;;;;11.47;5.43;;;14.20;99.90;;;;;;5004786;28;20190;-61
2023/07/22 02:53:03;;;;;;;9.80;5.57;;;14.30;99.90;;;;;;5010328;28;20204;-61
2023/07/22 02:55:30;;;;;;;13.17;5.57;;;14.30;99.90;;;;;;4993409;28;20959;-62
2023/07/22 02:57:57;;;;;;;8.50;5.40;;;14.30;99.90;;;;;;5008302;28;20216;-63
2023/07/22 03:00:24;;;;;;;10.97;4.90;;;14.30;99.90;;;;;;5003942;28;20193;-62
2023/07/22 03:02:53;;;;;;;8.60;6.03;;;14.20;99.90;;;;;;5008486;28;20208;-67
2023/07/22 03:05:21;;;;;;;11.80;6.03;;;14.10;99.90;;;;;;5008326;28;20244;-66
2023/07/22 03:07:48;;;;;;;12.10;5.80;;;14.20;99.90;;;;;;5009059;28;20279;-63
2023/07/22 03:10:15;;;;;;;11.20;5.77;;;14.20;99.90;;;;;;5006885;28;20201;-63
2023/07/22 03:13:18;;;;;;;12.17;7.37;;;14.30;99.90;;;;;;5010480;28;20199;-64
2023/07/22 03:16:22;;;;;;;6.40;4.93;;;14.50;99.90;;;;;;5006410;28;20211;-63
2023/07/22 03:19:25;;;;;;;12.23;5.90;;;14.70;99.90;;;;;;5009281;28;20187;-63
2023/07/22 03:22:28;;;;;;;10.83;6.40;;;14.70;99.90;;;;;;5007829;28;20280;-63
2023/07/22 03:25:33;;;;;;;10.17;5.83;;;14.70;99.90;;;;;;5009072;28;20192;-62
2023/07/22 03:28:36;;;;;;;12.13;6.03;;;14.70;99.90;;;;;;5012381;28;20235;-63
2023/07/22 03:31:40;;;;;;;8.87;4.83;;;14.50;99.90;;;;;;5008387;28;20203;-63
